sensor_id;sensor_type;location;lat;lon;timestamp;P1;durP1;ratioP1;P2;durP2;ratioP2
34767;SDS011;21755;43.608;1.236;2023-11-18T00:00:49;20.83;;;8.45;;
34767;SDS011;21755;43.608;1.236;2023-11-18T00:03:15;15.70;;;8.82;;
34767;SDS011;21755;43.608;1.236;2023-11-18T00:05:42;16.55;;;7.60;;
34767;SDS011;21755;43.608;1.236;2023-11-18T00:08:07;13.32;;;7.55;;
34767;SDS011;21755;43.608;1.236;2023-11-18T00:10:33;13.98;;;7.05;;
34767;SDS011;21755;43.608;1.236;2023-11-18T00:12:59;13.73;;;7.40;;
34767;SDS011;21755;43.608;1.236;2023-11-18T00:15:27;16.95;;;7.13;;
34767;SDS011;21755;43.608;1.236;2023-11-18T00:17:52;14.52;;;7.85;;
34767;SDS011;21755;43.608;1.236;2023-11-18T00:20:18;16.95;;;8.18;;
34767;SDS011;21755;43.608;1.236;2023-11-18T00:22:45;15.40;;;8.35;;
34767;SDS011;21755;43.608;1.236;2023-11-18T00:25:11;13.82;;;7.75;;
34767;SDS011;21755;43.608;1.236;2023-11-18T00:27:39;15.70;;;7.78;;
34767;SDS011;21755;43.608;1.236;2023-11-18T00:30:05;12.82;;;6.82;;
34767;SDS011;21755;43.608;1.236;2023-11-18T00:32:36;14.60;;;7.22;;
34767;SDS011;21755;43.608;1.236;2023-11-18T00:35:03;15.35;;;7.22;;
34767;SDS011;21755;43.608;1.236;2023-11-18T00:37:30;19.45;;;8.05;;
34767;SDS011;21755;43.608;1.236;2023-11-18T00:39:56;16.42;;;7.85;;
34767;SDS011;21755;43.608;1.236;2023-11-18T00:42:22;13.48;;;7.68;;
34767;SDS011;21755;43.608;1.236;2023-11-18T00:44:48;16.45;;;8.63;;
34767;SDS011;21755;43.608;1.236;2023-11-18T00:47:14;15.55;;;7.43;;
34767;SDS011;21755;43.608;1.236;2023-11-18T00:49:40;14.70;;;7.90;;
34767;SDS011;21755;43.608;1.236;2023-11-18T00:52:06;18.15;;;9.30;;
34767;SDS011;21755;43.608;1.236;2023-11-18T00:54:32;21.73;;;10.15;;
34767;SDS011;21755;43.608;1.236;2023-11-18T00:56:59;21.23;;;9.52;;
34767;SDS011;21755;43.608;1.236;2023-11-18T00:59:25;17.63;;;9.20;;
34767;SDS011;21755;43.608;1.236;2023-11-18T01:01:52;16.48;;;9.27;;
34767;SDS011;21755;43.608;1.236;2023-11-18T01:04:17;20.80;;;9.77;;
34767;SDS011;21755;43.608;1.236;2023-11-18T01:06:45;19.50;;;9.32;;
34767;SDS011;21755;43.608;1.236;2023-11-18T01:09:12;20.00;;;10.30;;
34767;SDS011;21755;43.608;1.236;2023-11-18T01:11:38;19.50;;;9.48;;
34767;SDS011;21755;43.608;1.236;2023-11-18T01:14:04;18.33;;;9.35;;
34767;SDS011;21755;43.608;1.236;2023-11-18T01:16:30;21.15;;;9.85;;
34767;SDS011;21755;43.608;1.236;2023-11-18T01:18:55;23.98;;;9.88;;
34767;SDS011;21755;43.608;1.236;2023-11-18T01:21:21;21.48;;;9.30;;
34767;SDS011;21755;43.608;1.236;2023-11-18T01:23:48;18.05;;;9.07;;
34767;SDS011;21755;43.608;1.236;2023-11-18T01:26:14;18.35;;;9.10;;
34767;SDS011;21755;43.608;1.236;2023-11-18T01:28:40;23.23;;;9.38;;
34767;SDS011;21755;43.608;1.236;2023-11-18T01:31:10;18.60;;;8.98;;
34767;SDS011;21755;43.608;1.236;2023-11-18T01:33:37;16.83;;;8.80;;
34767;SDS011;21755;43.608;1.236;2023-11-18T01:36:05;16.77;;;9.07;;
34767;SDS011;21755;43.608;1.236;2023-11-18T01:38:33;14.70;;;8.32;;
34767;SDS011;21755;43.608;1.236;2023-11-18T01:41:00;18.30;;;8.45;;
34767;SDS011;21755;43.608;1.236;2023-11-18T01:43:26;18.70;;;8.63;;
34767;SDS011;21755;43.608;1.236;2023-11-18T01:45:52;20.58;;;7.93;;
34767;SDS011;21755;43.608;1.236;2023-11-18T01:48:22;16.40;;;8.00;;
34767;SDS011;21755;43.608;1.236;2023-11-18T01:50:51;16.95;;;7.95;;
34767;SDS011;21755;43.608;1.236;2023-11-18T01:53:18;17.63;;;8.18;;
34767;SDS011;21755;43.608;1.236;2023-11-18T01:55:44;15.52;;;7.70;;
34767;SDS011;21755;43.608;1.236;2023-11-18T01:58:11;16.60;;;7.53;;
34767;SDS011;21755;43.608;1.236;2023-11-18T02:00:39;14.77;;;7.68;;
34767;SDS011;21755;43.608;1.236;2023-11-18T02:03:11;17.90;;;8.68;;
34767;SDS011;21755;43.608;1.236;2023-11-18T02:05:37;18.63;;;7.63;;
34767;SDS011;21755;43.608;1.236;2023-11-18T02:08:04;18.95;;;7.78;;
34767;SDS011;21755;43.608;1.236;2023-11-18T02:10:33;16.30;;;7.30;;
34767;SDS011;21755;43.608;1.236;2023-11-18T02:15:53;15.77;;;6.75;;
34767;SDS011;21755;43.608;1.236;2023-11-18T02:18:22;16.63;;;7.25;;
34767;SDS011;21755;43.608;1.236;2023-11-18T02:20:57;15.85;;;7.15;;
34767;SDS011;21755;43.608;1.236;2023-11-18T02:23:24;15.45;;;6.93;;
34767;SDS011;21755;43.608;1.236;2023-11-18T02:25:54;14.73;;;7.18;;
34767;SDS011;21755;43.608;1.236;2023-11-18T02:28:24;14.45;;;7.18;;
34767;SDS011;21755;43.608;1.236;2023-11-18T02:30:50;13.45;;;6.93;;
34767;SDS011;21755;43.608;1.236;2023-11-18T02:33:25;14.80;;;6.93;;
34767;SDS011;21755;43.608;1.236;2023-11-18T02:36:39;11.10;;;6.10;;
34767;SDS011;21755;43.608;1.236;2023-11-18T02:39:04;15.57;;;6.82;;
34767;SDS011;21755;43.608;1.236;2023-11-18T02:41:35;14.73;;;6.18;;
34767;SDS011;21755;43.608;1.236;2023-11-18T02:44:04;15.95;;;6.82;;
34767;SDS011;21755;43.608;1.236;2023-11-18T02:46:36;14.90;;;7.05;;
34767;SDS011;21755;43.608;1.236;2023-11-18T02:49:03;12.35;;;6.78;;
34767;SDS011;21755;43.608;1.236;2023-11-18T02:51:29;12.75;;;6.43;;
34767;SDS011;21755;43.608;1.236;2023-11-18T02:54:04;12.25;;;6.18;;
34767;SDS011;21755;43.608;1.236;2023-11-18T02:56:31;11.00;;;6.50;;
34767;SDS011;21755;43.608;1.236;2023-11-18T02:58:58;11.60;;;7.03;;
34767;SDS011;21755;43.608;1.236;2023-11-18T03:01:24;13.43;;;6.68;;
34767;SDS011;21755;43.608;1.236;2023-11-18T03:03:52;15.30;;;7.25;;
34767;SDS011;21755;43.608;1.236;2023-11-18T03:06:18;15.52;;;6.28;;
34767;SDS011;21755;43.608;1.236;2023-11-18T03:08:44;12.10;;;6.90;;
34767;SDS011;21755;43.608;1.236;2023-11-18T03:11:10;12.52;;;6.30;;
34767;SDS011;21755;43.608;1.236;2023-11-18T03:13:37;14.63;;;6.50;;
34767;SDS011;21755;43.608;1.236;2023-11-18T03:16:06;13.07;;;6.80;;
34767;SDS011;21755;43.608;1.236;2023-11-18T03:21:03;10.45;;;6.15;;
34767;SDS011;21755;43.608;1.236;2023-11-18T03:23:32;12.85;;;6.55;;
34767;SDS011;21755;43.608;1.236;2023-11-18T03:25:58;19.13;;;6.05;;
34767;SDS011;21755;43.608;1.236;2023-11-18T03:28:23;16.85;;;7.57;;
34767;SDS011;21755;43.608;1.236;2023-11-18T03:30:51;11.60;;;6.78;;
34767;SDS011;21755;43.608;1.236;2023-11-18T03:33:17;12.20;;;6.57;;
34767;SDS011;21755;43.608;1.236;2023-11-18T03:35:44;11.25;;;6.38;;
34767;SDS011;21755;43.608;1.236;2023-11-18T03:38:10;10.85;;;6.53;;
34767;SDS011;21755;43.608;1.236;2023-11-18T03:40:35;14.15;;;6.43;;
34767;SDS011;21755;43.608;1.236;2023-11-18T03:43:01;10.73;;;6.25;;
34767;SDS011;21755;43.608;1.236;2023-11-18T03:45:28;15.43;;;6.93;;
34767;SDS011;21755;43.608;1.236;2023-11-18T03:47:54;12.68;;;6.00;;
34767;SDS011;21755;43.608;1.236;2023-11-18T03:50:21;12.30;;;5.82;;
34767;SDS011;21755;43.608;1.236;2023-11-18T03:52:47;14.30;;;6.18;;
34767;SDS011;21755;43.608;1.236;2023-11-18T03:55:13;9.90;;;6.28;;
34767;SDS011;21755;43.608;1.236;2023-11-18T03:57:38;13.32;;;6.05;;
34767;SDS011;21755;43.608;1.236;2023-11-18T04:00:04;18.25;;;7.80;;
34767;SDS011;21755;43.608;1.236;2023-11-18T04:02:31;13.05;;;6.50;;
34767;SDS011;21755;43.608;1.236;2023-11-18T04:05:00;10.98;;;6.15;;
34767;SDS011;21755;43.608;1.236;2023-11-18T04:07:27;14.35;;;7.80;;
34767;SDS011;21755;43.608;1.236;2023-11-18T04:09:53;13.60;;;6.75;;
34767;SDS011;21755;43.608;1.236;2023-11-18T04:12:19;11.95;;;6.38;;
34767;SDS011;21755;43.608;1.236;2023-11-18T04:14:45;13.27;;;6.75;;
34767;SDS011;21755;43.608;1.236;2023-11-18T04:17:11;11.80;;;6.45;;
34767;SDS011;21755;43.608;1.236;2023-11-18T04:19:37;17.23;;;6.95;;
34767;SDS011;21755;43.608;1.236;2023-11-18T04:22:04;16.63;;;6.90;;
34767;SDS011;21755;43.608;1.236;2023-11-18T04:24:30;16.23;;;6.43;;
34767;SDS011;21755;43.608;1.236;2023-11-18T04:26:55;11.75;;;5.88;;
34767;SDS011;21755;43.608;1.236;2023-11-18T04:29:22;12.35;;;6.20;;
34767;SDS011;21755;43.608;1.236;2023-11-18T04:31:48;10.98;;;6.03;;
34767;SDS011;21755;43.608;1.236;2023-11-18T04:34:14;9.45;;;4.97;;
34767;SDS011;21755;43.608;1.236;2023-11-18T04:36:41;13.68;;;6.85;;
34767;SDS011;21755;43.608;1.236;2023-11-18T04:39:07;11.75;;;6.00;;
34767;SDS011;21755;43.608;1.236;2023-11-18T04:41:36;12.20;;;6.45;;
34767;SDS011;21755;43.608;1.236;2023-11-18T04:44:02;13.80;;;6.50;;
34767;SDS011;21755;43.608;1.236;2023-11-18T04:46:28;15.70;;;6.32;;
34767;SDS011;21755;43.608;1.236;2023-11-18T04:48:54;11.32;;;5.88;;
34767;SDS011;21755;43.608;1.236;2023-11-18T04:51:20;11.60;;;6.05;;
34767;SDS011;21755;43.608;1.236;2023-11-18T04:53:47;11.85;;;5.80;;
34767;SDS011;21755;43.608;1.236;2023-11-18T04:56:13;11.30;;;5.72;;
34767;SDS011;21755;43.608;1.236;2023-11-18T04:58:41;12.60;;;5.68;;
34767;SDS011;21755;43.608;1.236;2023-11-18T05:01:08;13.70;;;6.10;;
34767;SDS011;21755;43.608;1.236;2023-11-18T05:03:34;12.00;;;5.70;;
34767;SDS011;21755;43.608;1.236;2023-11-18T05:06:00;9.63;;;5.55;;
34767;SDS011;21755;43.608;1.236;2023-11-18T05:08:26;13.30;;;6.00;;
34767;SDS011;21755;43.608;1.236;2023-11-18T05:10:52;14.05;;;6.40;;
34767;SDS011;21755;43.608;1.236;2023-11-18T05:13:18;14.88;;;6.57;;
34767;SDS011;21755;43.608;1.236;2023-11-18T05:15:44;15.52;;;6.30;;
34767;SDS011;21755;43.608;1.236;2023-11-18T05:18:11;13.05;;;5.70;;
34767;SDS011;21755;43.608;1.236;2023-11-18T05:20:42;9.25;;;5.20;;
34767;SDS011;21755;43.608;1.236;2023-11-18T05:23:09;18.13;;;6.22;;
34767;SDS011;21755;43.608;1.236;2023-11-18T05:25:35;9.63;;;5.38;;
34767;SDS011;21755;43.608;1.236;2023-11-18T05:28:02;10.55;;;5.60;;
34767;SDS011;21755;43.608;1.236;2023-11-18T05:30:30;10.70;;;5.47;;
34767;SDS011;21755;43.608;1.236;2023-11-18T05:32:56;13.77;;;4.15;;
34767;SDS011;21755;43.608;1.236;2023-11-18T05:35:23;7.93;;;4.43;;
34767;SDS011;21755;43.608;1.236;2023-11-18T05:37:53;13.60;;;5.13;;
34767;SDS011;21755;43.608;1.236;2023-11-18T05:40:20;9.48;;;3.95;;
34767;SDS011;21755;43.608;1.236;2023-11-18T05:42:46;8.23;;;3.95;;
34767;SDS011;21755;43.608;1.236;2023-11-18T05:45:13;10.10;;;3.58;;
34767;SDS011;21755;43.608;1.236;2023-11-18T05:47:54;4.75;;;3.28;;
34767;SDS011;21755;43.608;1.236;2023-11-18T05:50:21;7.13;;;3.47;;
34767;SDS011;21755;43.608;1.236;2023-11-18T05:52:47;5.78;;;3.20;;
34767;SDS011;21755;43.608;1.236;2023-11-18T05:55:13;8.75;;;3.63;;
34767;SDS011;21755;43.608;1.236;2023-11-18T05:57:39;10.10;;;3.72;;
34767;SDS011;21755;43.608;1.236;2023-11-18T06:00:05;4.80;;;3.17;;
34767;SDS011;21755;43.608;1.236;2023-11-18T06:02:31;13.35;;;4.03;;
34767;SDS011;21755;43.608;1.236;2023-11-18T06:04:58;4.20;;;2.92;;
34767;SDS011;21755;43.608;1.236;2023-11-18T06:07:24;8.20;;;3.17;;
34767;SDS011;21755;43.608;1.236;2023-11-18T06:09:50;7.50;;;3.88;;
34767;SDS011;21755;43.608;1.236;2023-11-18T06:12:17;6.38;;;3.63;;
34767;SDS011;21755;43.608;1.236;2023-11-18T06:14:43;7.32;;;3.55;;
34767;SDS011;21755;43.608;1.236;2023-11-18T06:17:10;7.35;;;3.60;;
34767;SDS011;21755;43.608;1.236;2023-11-18T06:19:38;7.75;;;4.03;;
34767;SDS011;21755;43.608;1.236;2023-11-18T06:22:04;7.57;;;4.07;;
34767;SDS011;21755;43.608;1.236;2023-11-18T06:24:31;13.90;;;4.47;;
34767;SDS011;21755;43.608;1.236;2023-11-18T06:26:57;9.60;;;4.25;;
34767;SDS011;21755;43.608;1.236;2023-11-18T06:29:24;9.00;;;3.95;;
34767;SDS011;21755;43.608;1.236;2023-11-18T06:31:50;7.65;;;3.42;;
34767;SDS011;21755;43.608;1.236;2023-11-18T06:34:16;7.30;;;3.28;;
34767;SDS011;21755;43.608;1.236;2023-11-18T06:36:43;8.55;;;3.90;;
34767;SDS011;21755;43.608;1.236;2023-11-18T06:39:09;11.80;;;3.70;;
34767;SDS011;21755;43.608;1.236;2023-11-18T06:41:35;9.88;;;4.57;;
34767;SDS011;21755;43.608;1.236;2023-11-18T06:44:04;6.90;;;3.67;;
34767;SDS011;21755;43.608;1.236;2023-11-18T06:46:38;6.55;;;4.13;;
34767;SDS011;21755;43.608;1.236;2023-11-18T06:49:05;7.68;;;3.42;;
34767;SDS011;21755;43.608;1.236;2023-11-18T06:51:40;4.75;;;3.50;;
34767;SDS011;21755;43.608;1.236;2023-11-18T06:54:06;7.47;;;4.30;;
34767;SDS011;21755;43.608;1.236;2023-11-18T06:56:39;7.22;;;3.88;;
34767;SDS011;21755;43.608;1.236;2023-11-18T06:59:09;8.35;;;4.68;;
34767;SDS011;21755;43.608;1.236;2023-11-18T07:01:37;8.95;;;4.32;;
34767;SDS011;21755;43.608;1.236;2023-11-18T07:04:05;7.15;;;4.75;;
34767;SDS011;21755;43.608;1.236;2023-11-18T07:06:35;9.77;;;3.75;;
34767;SDS011;21755;43.608;1.236;2023-11-18T07:09:06;9.52;;;4.70;;
34767;SDS011;21755;43.608;1.236;2023-11-18T07:11:42;10.32;;;5.43;;
34767;SDS011;21755;43.608;1.236;2023-11-18T07:14:09;8.63;;;4.50;;
34767;SDS011;21755;43.608;1.236;2023-11-18T07:16:35;10.15;;;5.10;;
34767;SDS011;21755;43.608;1.236;2023-11-18T07:19:03;11.48;;;5.63;;
34767;SDS011;21755;43.608;1.236;2023-11-18T07:21:29;7.80;;;4.97;;
34767;SDS011;21755;43.608;1.236;2023-11-18T07:23:55;15.57;;;5.65;;
34767;SDS011;21755;43.608;1.236;2023-11-18T07:26:21;18.60;;;5.22;;
34767;SDS011;21755;43.608;1.236;2023-11-18T07:28:49;15.73;;;6.40;;
34767;SDS011;21755;43.608;1.236;2023-11-18T07:31:16;13.68;;;6.70;;
34767;SDS011;21755;43.608;1.236;2023-11-18T07:33:44;12.10;;;6.28;;
34767;SDS011;21755;43.608;1.236;2023-11-18T07:36:14;12.55;;;6.95;;
34767;SDS011;21755;43.608;1.236;2023-11-18T07:38:41;12.35;;;6.72;;
34767;SDS011;21755;43.608;1.236;2023-11-18T07:41:07;11.95;;;7.30;;
34767;SDS011;21755;43.608;1.236;2023-11-18T07:43:34;14.57;;;7.03;;
34767;SDS011;21755;43.608;1.236;2023-11-18T07:46:05;11.52;;;6.55;;
34767;SDS011;21755;43.608;1.236;2023-11-18T07:48:33;14.15;;;7.05;;
34767;SDS011;21755;43.608;1.236;2023-11-18T07:51:00;11.25;;;6.30;;
34767;SDS011;21755;43.608;1.236;2023-11-18T07:53:27;8.85;;;5.50;;
34767;SDS011;21755;43.608;1.236;2023-11-18T07:55:54;11.90;;;5.43;;
34767;SDS011;21755;43.608;1.236;2023-11-18T07:58:20;8.43;;;5.38;;
34767;SDS011;21755;43.608;1.236;2023-11-18T08:00:48;11.10;;;5.45;;
34767;SDS011;21755;43.608;1.236;2023-11-18T08:03:15;11.95;;;5.10;;
34767;SDS011;21755;43.608;1.236;2023-11-18T08:05:41;11.75;;;5.68;;
34767;SDS011;21755;43.608;1.236;2023-11-18T08:08:11;10.50;;;5.40;;
34767;SDS011;21755;43.608;1.236;2023-11-18T08:10:38;13.73;;;5.93;;
34767;SDS011;21755;43.608;1.236;2023-11-18T08:13:05;11.18;;;5.55;;
34767;SDS011;21755;43.608;1.236;2023-11-18T08:15:33;12.65;;;5.40;;
34767;SDS011;21755;43.608;1.236;2023-11-18T08:17:59;15.57;;;6.53;;
34767;SDS011;21755;43.608;1.236;2023-11-18T08:20:25;14.40;;;6.45;;
34767;SDS011;21755;43.608;1.236;2023-11-18T08:22:51;13.57;;;6.82;;
34767;SDS011;21755;43.608;1.236;2023-11-18T08:25:18;12.88;;;6.10;;
34767;SDS011;21755;43.608;1.236;2023-11-18T08:27:44;13.55;;;5.72;;
34767;SDS011;21755;43.608;1.236;2023-11-18T08:30:13;10.60;;;5.20;;
34767;SDS011;21755;43.608;1.236;2023-11-18T08:32:39;9.32;;;5.45;;
34767;SDS011;21755;43.608;1.236;2023-11-18T08:35:09;10.27;;;5.45;;
34767;SDS011;21755;43.608;1.236;2023-11-18T08:37:38;12.85;;;5.13;;
34767;SDS011;21755;43.608;1.236;2023-11-18T08:40:05;10.60;;;5.63;;
34767;SDS011;21755;43.608;1.236;2023-11-18T08:45:18;10.18;;;5.15;;
34767;SDS011;21755;43.608;1.236;2023-11-18T08:47:47;8.70;;;5.50;;
34767;SDS011;21755;43.608;1.236;2023-11-18T08:50:14;12.63;;;5.85;;
34767;SDS011;21755;43.608;1.236;2023-11-18T08:52:43;12.25;;;5.32;;
34767;SDS011;21755;43.608;1.236;2023-11-18T08:55:15;9.60;;;5.47;;
34767;SDS011;21755;43.608;1.236;2023-11-18T08:57:50;15.48;;;5.10;;
34767;SDS011;21755;43.608;1.236;2023-11-18T09:00:29;7.68;;;4.95;;
34767;SDS011;21755;43.608;1.236;2023-11-18T09:06:02;10.75;;;4.53;;
34767;SDS011;21755;43.608;1.236;2023-11-18T09:08:42;9.30;;;4.07;;
34767;SDS011;21755;43.608;1.236;2023-11-18T09:11:17;15.18;;;5.18;;
34767;SDS011;21755;43.608;1.236;2023-11-18T09:13:45;7.65;;;4.47;;
34767;SDS011;21755;43.608;1.236;2023-11-18T09:16:19;8.70;;;4.28;;
34767;SDS011;21755;43.608;1.236;2023-11-18T09:18:50;11.23;;;4.93;;
34767;SDS011;21755;43.608;1.236;2023-11-18T09:21:17;9.73;;;3.95;;
34767;SDS011;21755;43.608;1.236;2023-11-18T09:23:50;8.43;;;4.53;;
34767;SDS011;21755;43.608;1.236;2023-11-18T09:26:16;13.77;;;4.25;;
34767;SDS011;21755;43.608;1.236;2023-11-18T09:28:42;7.82;;;4.13;;
34767;SDS011;21755;43.608;1.236;2023-11-18T09:31:11;11.20;;;4.25;;
34767;SDS011;21755;43.608;1.236;2023-11-18T09:33:38;13.40;;;4.20;;
34767;SDS011;21755;43.608;1.236;2023-11-18T09:36:10;8.73;;;3.70;;
34767;SDS011;21755;43.608;1.236;2023-11-18T09:38:40;7.22;;;4.22;;
34767;SDS011;21755;43.608;1.236;2023-11-18T09:41:09;8.57;;;4.50;;
34767;SDS011;21755;43.608;1.236;2023-11-18T09:46:15;7.85;;;4.50;;
34767;SDS011;21755;43.608;1.236;2023-11-18T09:51:20;8.55;;;3.33;;
34767;SDS011;21755;43.608;1.236;2023-11-18T09:53:49;5.55;;;3.53;;
34767;SDS011;21755;43.608;1.236;2023-11-18T09:56:27;4.95;;;3.65;;
34767;SDS011;21755;43.608;1.236;2023-11-18T09:59:16;10.52;;;3.85;;
34767;SDS011;21755;43.608;1.236;2023-11-18T10:01:53;9.05;;;4.20;;
34767;SDS011;21755;43.608;1.236;2023-11-18T10:04:23;10.45;;;3.45;;
34767;SDS011;21755;43.608;1.236;2023-11-18T10:06:53;8.88;;;4.28;;
34767;SDS011;21755;43.608;1.236;2023-11-18T10:09:19;10.77;;;3.42;;
34767;SDS011;21755;43.608;1.236;2023-11-18T10:11:53;8.35;;;3.63;;
34767;SDS011;21755;43.608;1.236;2023-11-18T10:14:30;5.95;;;3.00;;
34767;SDS011;21755;43.608;1.236;2023-11-18T10:16:57;7.18;;;3.05;;
34767;SDS011;21755;43.608;1.236;2023-11-18T10:19:24;8.20;;;3.47;;
34767;SDS011;21755;43.608;1.236;2023-11-18T10:21:51;8.43;;;2.63;;
34767;SDS011;21755;43.608;1.236;2023-11-18T10:24:17;10.27;;;2.63;;
34767;SDS011;21755;43.608;1.236;2023-11-18T10:26:45;9.90;;;2.38;;
34767;SDS011;21755;43.608;1.236;2023-11-18T10:29:21;6.50;;;1.98;;
34767;SDS011;21755;43.608;1.236;2023-11-18T10:32:04;6.32;;;1.70;;
34767;SDS011;21755;43.608;1.236;2023-11-18T10:34:35;5.85;;;2.47;;
34767;SDS011;21755;43.608;1.236;2023-11-18T10:37:01;9.05;;;2.53;;
34767;SDS011;21755;43.608;1.236;2023-11-18T10:39:31;6.45;;;2.00;;
34767;SDS011;21755;43.608;1.236;2023-11-18T10:42:00;6.10;;;1.95;;
34767;SDS011;21755;43.608;1.236;2023-11-18T10:44:26;7.53;;;2.45;;
34767;SDS011;21755;43.608;1.236;2023-11-18T10:46:53;9.30;;;2.05;;
34767;SDS011;21755;43.608;1.236;2023-11-18T10:49:22;8.07;;;2.03;;
34767;SDS011;21755;43.608;1.236;2023-11-18T10:51:52;4.78;;;1.60;;
34767;SDS011;21755;43.608;1.236;2023-11-18T10:54:18;6.65;;;2.13;;
34767;SDS011;21755;43.608;1.236;2023-11-18T10:56:48;6.50;;;1.98;;
34767;SDS011;21755;43.608;1.236;2023-11-18T10:59:14;3.25;;;1.65;;
34767;SDS011;21755;43.608;1.236;2023-11-18T11:01:44;12.32;;;2.17;;
34767;SDS011;21755;43.608;1.236;2023-11-18T11:04:13;4.47;;;1.73;;
34767;SDS011;21755;43.608;1.236;2023-11-18T11:06:49;2.60;;;1.67;;
34767;SDS011;21755;43.608;1.236;2023-11-18T11:09:22;5.07;;;1.95;;
34767;SDS011;21755;43.608;1.236;2023-11-18T11:11:53;9.23;;;2.22;;
34767;SDS011;21755;43.608;1.236;2023-11-18T11:14:22;5.05;;;1.67;;
34767;SDS011;21755;43.608;1.236;2023-11-18T11:17:00;6.43;;;1.90;;
34767;SDS011;21755;43.608;1.236;2023-11-18T11:25:42;5.82;;;1.95;;
34767;SDS011;21755;43.608;1.236;2023-11-18T11:28:34;5.40;;;1.98;;
34767;SDS011;21755;43.608;1.236;2023-11-18T11:33:53;2.50;;;1.50;;
34767;SDS011;21755;43.608;1.236;2023-11-18T11:36:25;5.38;;;2.05;;
34767;SDS011;21755;43.608;1.236;2023-11-18T11:38:59;4.47;;;1.58;;
34767;SDS011;21755;43.608;1.236;2023-11-18T11:41:26;4.03;;;1.70;;
34767;SDS011;21755;43.608;1.236;2023-11-18T11:43:54;3.45;;;1.45;;
34767;SDS011;21755;43.608;1.236;2023-11-18T11:46:21;2.80;;;1.60;;
34767;SDS011;21755;43.608;1.236;2023-11-18T11:48:51;5.45;;;1.60;;
34767;SDS011;21755;43.608;1.236;2023-11-18T11:53:58;6.35;;;1.50;;
34767;SDS011;21755;43.608;1.236;2023-11-18T11:56:46;2.80;;;1.23;;
34767;SDS011;21755;43.608;1.236;2023-11-18T11:59:17;11.98;;;2.13;;
34767;SDS011;21755;43.608;1.236;2023-11-18T12:02:01;4.15;;;1.50;;
34767;SDS011;21755;43.608;1.236;2023-11-18T12:04:32;7.18;;;1.80;;
34767;SDS011;21755;43.608;1.236;2023-11-18T12:07:03;2.25;;;1.30;;
34767;SDS011;21755;43.608;1.236;2023-11-18T12:09:33;4.38;;;1.50;;
34767;SDS011;21755;43.608;1.236;2023-11-18T12:12:16;8.40;;;1.83;;
34767;SDS011;21755;43.608;1.236;2023-11-18T12:14:51;6.07;;;1.38;;
34767;SDS011;21755;43.608;1.236;2023-11-18T12:17:21;9.68;;;1.70;;
34767;SDS011;21755;43.608;1.236;2023-11-18T12:19:48;3.33;;;1.73;;
34767;SDS011;21755;43.608;1.236;2023-11-18T12:22:19;3.55;;;1.88;;
34767;SDS011;21755;43.608;1.236;2023-11-18T12:30:05;4.32;;;1.90;;
34767;SDS011;21755;43.608;1.236;2023-11-18T12:35:23;4.95;;;1.80;;
34767;SDS011;21755;43.608;1.236;2023-11-18T12:41:00;4.63;;;1.45;;
34767;SDS011;21755;43.608;1.236;2023-11-18T12:49:22;4.88;;;1.42;;
34767;SDS011;21755;43.608;1.236;2023-11-18T12:51:49;5.60;;;1.88;;
34767;SDS011;21755;43.608;1.236;2023-11-18T12:54:17;7.30;;;1.80;;
34767;SDS011;21755;43.608;1.236;2023-11-18T12:56:47;5.70;;;2.10;;
34767;SDS011;21755;43.608;1.236;2023-11-18T12:59:15;3.33;;;1.33;;
34767;SDS011;21755;43.608;1.236;2023-11-18T13:01:45;4.47;;;1.88;;
34767;SDS011;21755;43.608;1.236;2023-11-18T13:04:18;3.35;;;1.83;;
34767;SDS011;21755;43.608;1.236;2023-11-18T13:06:49;3.30;;;1.70;;
34767;SDS011;21755;43.608;1.236;2023-11-18T13:09:18;2.25;;;1.75;;
34767;SDS011;21755;43.608;1.236;2023-11-18T13:12:01;4.60;;;1.95;;
34767;SDS011;21755;43.608;1.236;2023-11-18T13:14:34;5.15;;;1.63;;
34767;SDS011;21755;43.608;1.236;2023-11-18T13:17:04;4.65;;;1.50;;
34767;SDS011;21755;43.608;1.236;2023-11-18T13:22:01;6.28;;;1.70;;
34767;SDS011;21755;43.608;1.236;2023-11-18T13:24:33;5.38;;;1.65;;
34767;SDS011;21755;43.608;1.236;2023-11-18T13:27:04;5.03;;;1.77;;
34767;SDS011;21755;43.608;1.236;2023-11-18T13:29:32;3.38;;;1.83;;
34767;SDS011;21755;43.608;1.236;2023-11-18T13:32:00;7.82;;;1.90;;
34767;SDS011;21755;43.608;1.236;2023-11-18T13:34:30;3.00;;;1.55;;
34767;SDS011;21755;43.608;1.236;2023-11-18T13:36:58;6.30;;;2.10;;
34767;SDS011;21755;43.608;1.236;2023-11-18T13:39:25;8.38;;;1.90;;
34767;SDS011;21755;43.608;1.236;2023-11-18T13:41:56;5.35;;;1.92;;
34767;SDS011;21755;43.608;1.236;2023-11-18T13:44:35;9.20;;;1.67;;
34767;SDS011;21755;43.608;1.236;2023-11-18T13:47:07;15.07;;;2.08;;
34767;SDS011;21755;43.608;1.236;2023-11-18T13:49:39;4.72;;;1.63;;
34767;SDS011;21755;43.608;1.236;2023-11-18T13:52:08;4.35;;;1.50;;
34767;SDS011;21755;43.608;1.236;2023-11-18T13:54:37;3.97;;;2.00;;
34767;SDS011;21755;43.608;1.236;2023-11-18T13:57:03;7.18;;;2.40;;
34767;SDS011;21755;43.608;1.236;2023-11-18T13:59:31;6.05;;;1.50;;
34767;SDS011;21755;43.608;1.236;2023-11-18T14:01:58;4.82;;;2.10;;
34767;SDS011;21755;43.608;1.236;2023-11-18T14:04:28;6.43;;;2.55;;
34767;SDS011;21755;43.608;1.236;2023-11-18T14:06:57;3.50;;;1.92;;
34767;SDS011;21755;43.608;1.236;2023-11-18T14:09:24;4.88;;;1.80;;
34767;SDS011;21755;43.608;1.236;2023-11-18T14:11:52;5.13;;;2.13;;
34767;SDS011;21755;43.608;1.236;2023-11-18T14:14:20;6.00;;;1.90;;
34767;SDS011;21755;43.608;1.236;2023-11-18T14:16:46;4.05;;;1.75;;
34767;SDS011;21755;43.608;1.236;2023-11-18T14:19:12;5.90;;;1.85;;
34767;SDS011;21755;43.608;1.236;2023-11-18T14:21:42;11.32;;;2.30;;
34767;SDS011;21755;43.608;1.236;2023-11-18T14:24:08;6.50;;;2.00;;
34767;SDS011;21755;43.608;1.236;2023-11-18T14:26:36;4.82;;;1.70;;
34767;SDS011;21755;43.608;1.236;2023-11-18T14:29:05;5.05;;;1.90;;
34767;SDS011;21755;43.608;1.236;2023-11-18T14:31:34;6.15;;;2.00;;
34767;SDS011;21755;43.608;1.236;2023-11-18T14:34:00;6.38;;;2.15;;
34767;SDS011;21755;43.608;1.236;2023-11-18T14:36:27;5.78;;;1.63;;
34767;SDS011;21755;43.608;1.236;2023-11-18T14:38:53;6.57;;;1.83;;
34767;SDS011;21755;43.608;1.236;2023-11-18T14:41:20;5.18;;;2.22;;
34767;SDS011;21755;43.608;1.236;2023-11-18T14:43:50;5.53;;;1.85;;
34767;SDS011;21755;43.608;1.236;2023-11-18T14:46:17;6.20;;;2.50;;
34767;SDS011;21755;43.608;1.236;2023-11-18T14:48:43;7.13;;;2.65;;
34767;SDS011;21755;43.608;1.236;2023-11-18T14:51:10;4.32;;;2.38;;
34767;SDS011;21755;43.608;1.236;2023-11-18T14:53:36;10.50;;;3.53;;
34767;SDS011;21755;43.608;1.236;2023-11-18T14:56:03;6.90;;;2.80;;
34767;SDS011;21755;43.608;1.236;2023-11-18T14:58:30;8.27;;;2.63;;
34767;SDS011;21755;43.608;1.236;2023-11-18T15:00:57;3.85;;;2.17;;
34767;SDS011;21755;43.608;1.236;2023-11-18T15:03:25;3.13;;;1.98;;
34767;SDS011;21755;43.608;1.236;2023-11-18T15:05:51;10.10;;;2.53;;
34767;SDS011;21755;43.608;1.236;2023-11-18T15:08:17;4.00;;;2.00;;
34767;SDS011;21755;43.608;1.236;2023-11-18T15:10:43;7.07;;;2.08;;
34767;SDS011;21755;43.608;1.236;2023-11-18T15:13:09;6.80;;;2.65;;
34767;SDS011;21755;43.608;1.236;2023-11-18T15:15:43;9.13;;;2.88;;
34767;SDS011;21755;43.608;1.236;2023-11-18T15:18:12;14.68;;;8.07;;
34767;SDS011;21755;43.608;1.236;2023-11-18T15:20:39;11.95;;;5.70;;
34767;SDS011;21755;43.608;1.236;2023-11-18T15:23:11;7.28;;;3.70;;
34767;SDS011;21755;43.608;1.236;2023-11-18T15:25:38;6.93;;;3.67;;
34767;SDS011;21755;43.608;1.236;2023-11-18T15:28:04;9.02;;;3.33;;
34767;SDS011;21755;43.608;1.236;2023-11-18T15:30:39;4.63;;;2.58;;
34767;SDS011;21755;43.608;1.236;2023-11-18T15:33:05;6.10;;;2.10;;
34767;SDS011;21755;43.608;1.236;2023-11-18T15:35:35;3.30;;;1.80;;